Akebono — JG5644 — position and weather

sailwx.info

Track history (hours):
 
Tides and Currents Weather Stations Pressure Air Temp Water Temp Dewpoint Dewpoint Depression Visibility Wind Speed Wind Dir Waves Ship Positions

Akebono

Last reported at 2014-Sep-01 07:34 UTC. Time now 2014-Sep-01 07:43 UTC.
Position N 35°27' E 139°40'.

Length 33 m; draft 4.4 m.

Type: Tug. MMSI: 431000233.

Date/timePositionNaut miles runAvg speedWind from/ knotsBaromVisibWave heightAir tempDewpointWater temp
2014-Sep-01 07:34N 35°27' E 139°40'1 0.7
2014-Sep-01 06:33N 35°27' E 139°41'1 1.2
2014-Sep-01 05:34N 35°27' E 139°39'0 0.0
2014-Sep-01 04:34N 35°27' E 139°39'0 0.0
2014-Sep-01 03:34N 35°27' E 139°39'0 0.0
2014-Sep-01 02:34N 35°27' E 139°39'0 0.0
2014-Sep-01 01:34N 35°27' E 139°39'0 0.0
2014-Sep-01 00:34N 35°27' E 139°39'0 0.0
2014-Aug-31 23:34N 35°27' E 139°39'1 1.5
2014-Aug-31 22:34N 35°28' E 139°41'1 1.4
2014-Aug-31 21:33N 35°29' E 139°42'2 2.1
2014-Aug-31 20:33N 35°27' E 139°41'2 1.7
2014-Aug-31 19:34N 35°27' E 139°39'0 0.0
2014-Aug-31 05:24N 35°27' E 139°39'0 0.0
2014-Aug-31 04:34N 35°27' E 139°39'1 0.6
2014-Aug-31 03:33N 35°27' E 139°40'1 0.6
2014-Aug-31 02:33N 35°27' E 139°40'1 0.9
2014-Aug-31 01:33N 35°27' E 139°39'0 0.0
2014-Aug-31 00:34N 35°27' E 139°39'0 0.1
2014-Aug-30 23:34N 35°27' E 139°39'1 1.1
2014-Aug-30 22:34N 35°27' E 139°41'2 2.2
2014-Aug-30 21:33N 35°26' E 139°43'4 4.3
2014-Aug-30 20:33N 35°30' E 139°46'6 6.2
2014-Aug-30 19:33N 35°27' E 139°39'0 0.0
2014-Aug-30 07:04N 35°27' E 139°39'0 0.0
2014-Aug-30 06:33N 35°27' E 139°39'0 0.0
2014-Aug-30 05:34N 35°27' E 139°39'0 0.0
2014-Aug-30 04:34N 35°27' E 139°39'0 0.0
2014-Aug-30 03:34N 35°27' E 139°39'0 0.0
2014-Aug-30 02:34N 35°27' E 139°39'0 0.0
2014-Aug-30 01:34N 35°27' E 139°39'0 0.0
2014-Aug-30 00:33N 35°27' E 139°39'2 2.0
2014-Aug-29 23:33N 35°28' E 139°42'3 2.6
2014-Aug-29 22:33N 35°27' E 139°45'3 3.3
2014-Aug-29 21:33N 35°28' E 139°41'0 0.2
2014-Aug-29 20:33N 35°28' E 139°41'2 2.0
2014-Aug-29 19:33N 35°27' E 139°39'0 0.0
2014-Aug-29 18:33N 35°27' E 139°39'0 0.0
2014-Aug-29 17:33N 35°27' E 139°39'0 0.0
2014-Aug-29 16:33N 35°27' E 139°39'0 0.0
2014-Aug-29 15:33N 35°27' E 139°39'0 0.0
2014-Aug-29 14:33N 35°27' E 139°39'0 0.0
2014-Aug-29 13:33N 35°27' E 139°39'0 0.0
2014-Aug-29 12:33N 35°27' E 139°39'0 0.0
2014-Aug-29 11:33N 35°27' E 139°39'0 0.5
2014-Aug-29 10:33N 35°27' E 139°40'1 0.7
2014-Aug-29 09:33N 35°27' E 139°41'3 2.8
2014-Aug-29 08:33N 35°26' E 139°44'4 3.8
2014-Aug-29 07:34N 35°27' E 139°40'1 0.8
2014-Aug-29 06:33N 35°28' E 139°40'0 0.5
2014-Aug-29 05:33N 35°27' E 139°41'9 8.7
2014-Aug-29 04:33N 35°29' E 139°51'6 5.6
2014-Aug-29 03:33N 35°28' E 139°58'1 1.2
2014-Aug-29 02:34N 35°28' E 139°56'0 0.0
2014-Aug-29 01:34N 35°28' E 139°56'2 1.9
2014-Aug-29 00:33N 35°28' E 139°54'8 7.8
2014-Aug-28 23:34N 35°27' E 139°45'3 3.0
2014-Aug-28 22:33N 35°27' E 139°41'2 1.6
2014-Aug-28 21:33N 35°27' E 139°39'1 0.0
2014-Aug-28 00:34N 35°27' E 139°40'1 1.3
2014-Aug-27 23:34N 35°26' E 139°42'2 1.5
2014-Aug-27 22:34N 35°27' E 139°43'0 0.5
2014-Aug-27 21:33N 35°27' E 139°43'2 1.6
2014-Aug-27 20:33N 35°26' E 139°41'1 0.7
2014-Aug-27 19:33N 35°27' E 139°40'1 0.8
2014-Aug-27 18:33N 35°28' E 139°40'0 0.0
2014-Aug-27 17:33N 35°28' E 139°40'0 0.0
2014-Aug-27 16:33N 35°28' E 139°40'0 0.0
2014-Aug-27 15:33N 35°28' E 139°40'0 0.0
2014-Aug-27 14:33N 35°28' E 139°40'0 0.0
2014-Aug-27 13:33N 35°28' E 139°40'0 0.0
2014-Aug-27 12:33N 35°28' E 139°40'0 0.0
2014-Aug-27 11:33N 35°28' E 139°40'2 1.8
2014-Aug-27 10:33N 35°28' E 139°43'1 1.0
2014-Aug-27 09:34N 35°27' E 139°43'0 0.2
2014-Aug-27 08:33N 35°27' E 139°42'0 0.0
2014-Aug-27 07:33N 35°27' E 139°42'1 1.1
2014-Aug-27 06:33N 35°27' E 139°41'2 1.6
2014-Aug-27 05:33N 35°27' E 139°39'0 0.0
2014-Aug-27 04:33N 35°27' E 139°39'0 0.0
2014-Aug-27 03:33N 35°27' E 139°39'0 0.0
2014-Aug-27 02:33N 35°27' E 139°39'0 0.0
2014-Aug-27 01:33N 35°27' E 139°39'0 0.0
2014-Aug-27 00:33N 35°27' E 139°39'0 0.0
2014-Aug-26 23:33N 35°27' E 139°39'0 0.0
2014-Aug-26 22:33N 35°27' E 139°39'0 0.0
2014-Aug-26 21:33N 35°27' E 139°39'0 0.0
2014-Aug-26 20:33N 35°27' E 139°39'0 0.0
2014-Aug-26 07:14N 35°27' E 139°39'0 0.0
2014-Aug-26 06:33N 35°27' E 139°39'0 0.1
2014-Aug-26 05:33N 35°27' E 139°39'2 1.9
2014-Aug-26 04:33N 35°29' E 139°40'2 1.7
2014-Aug-26 03:33N 35°27' E 139°39'2 1.9
2014-Aug-26 02:33N 35°27' E 139°42'2 1.5
2014-Aug-26 01:33N 35°25' E 139°41'1 0.9
2014-Aug-26 00:33N 35°26' E 139°42'2 2.1
2014-Aug-25 23:34N 35°28' E 139°42'2 2.0
2014-Aug-25 22:33N 35°27' E 139°44'4 4.0
2014-Aug-25 21:33N 35°27' E 139°39'0 0.0
2014-Aug-25 09:22N 35°27' E 139°39'0 0.0
2014-Aug-25 08:33N 35°27' E 139°39'0 0.0
2014-Aug-25 07:33N 35°27' E 139°39'3 3.1
2014-Aug-25 06:33N 35°24' E 139°38'0 0.0
2014-Aug-25 05:33N 35°24' E 139°38'1 1.4
2014-Aug-25 04:33N 35°24' E 139°40'1 0.9
2014-Aug-25 03:33N 35°23' E 139°40'0 0.0
2014-Aug-25 02:33N 35°23' E 139°40'0 0.0
2014-Aug-25 01:33N 35°23' E 139°40'1 0.7
2014-Aug-25 00:33N 35°24' E 139°40'2 1.5
2014-Aug-24 23:34N 35°25' E 139°39'4 3.6
2014-Aug-24 22:33N 35°22' E 139°42'5 5.1
2014-Aug-24 21:33N 35°27' E 139°39'1 0.0
2014-Aug-23 03:33N 35°28' E 139°41'0 0.0
2014-Aug-23 02:33N 35°28' E 139°41'0 0.0
2014-Aug-23 01:33N 35°28' E 139°41'2 1.8
2014-Aug-23 00:34N 35°26' E 139°42'2 2.3
2014-Aug-22 23:33N 35°27' E 139°39'0 0.0
2014-Aug-22 22:33N 35°27' E 139°39'2 2.5
2014-Aug-22 21:34N 35°26' E 139°42'3 2.5
2014-Aug-22 20:34N 35°27' E 139°39'3 0.2
2014-Aug-22 09:33N 35°29' E 139°42'1 1.5
2014-Aug-22 08:33N 35°30' E 139°43'  
Track history (hours):
 
Tides and Currents Weather Stations Pressure Air Temp Water Temp Dewpoint Dewpoint Depression Visibility Wind Speed Wind Dir Waves Ship Positions

Akebono

Last reported at 2014-Sep-01 07:34 UTC. Time now 2014-Sep-01 07:43 UTC.
Position N 35°27' E 139°40'.

Length 33 m; draft 4.4 m.

Type: Tug. MMSI: 431000233.

Date/timePositionNaut miles runAvg speedWind from/ knotsBaromVisibWave heightAir tempDewpointWater temp
2014-Sep-01 07:34N 35°27' E 139°40'1 0.7
2014-Sep-01 06:33N 35°27' E 139°41'1 1.2
2014-Sep-01 05:34N 35°27' E 139°39'0 0.0
2014-Sep-01 04:34N 35°27' E 139°39'0 0.0
2014-Sep-01 03:34N 35°27' E 139°39'0 0.0
2014-Sep-01 02:34N 35°27' E 139°39'0 0.0
2014-Sep-01 01:34N 35°27' E 139°39'0 0.0
2014-Sep-01 00:34N 35°27' E 139°39'0 0.0
2014-Aug-31 23:34N 35°27' E 139°39'1 1.5
2014-Aug-31 22:34N 35°28' E 139°41'1 1.4
2014-Aug-31 21:33N 35°29' E 139°42'2 2.1
2014-Aug-31 20:33N 35°27' E 139°41'2 1.7
2014-Aug-31 19:34N 35°27' E 139°39'0 0.0
2014-Aug-31 05:24N 35°27' E 139°39'0 0.0
2014-Aug-31 04:34N 35°27' E 139°39'1 0.6
2014-Aug-31 03:33N 35°27' E 139°40'1 0.6
2014-Aug-31 02:33N 35°27' E 139°40'1 0.9
2014-Aug-31 01:33N 35°27' E 139°39'0 0.0
2014-Aug-31 00:34N 35°27' E 139°39'0 0.1
2014-Aug-30 23:34N 35°27' E 139°39'1 1.1
2014-Aug-30 22:34N 35°27' E 139°41'2 2.2
2014-Aug-30 21:33N 35°26' E 139°43'4 4.3
2014-Aug-30 20:33N 35°30' E 139°46'6 6.2
2014-Aug-30 19:33N 35°27' E 139°39'0 0.0
2014-Aug-30 07:04N 35°27' E 139°39'0 0.0
2014-Aug-30 06:33N 35°27' E 139°39'0 0.0
2014-Aug-30 05:34N 35°27' E 139°39'0 0.0
2014-Aug-30 04:34N 35°27' E 139°39'0 0.0
2014-Aug-30 03:34N 35°27' E 139°39'0 0.0
2014-Aug-30 02:34N 35°27' E 139°39'0 0.0
2014-Aug-30 01:34N 35°27' E 139°39'0 0.0
2014-Aug-30 00:33N 35°27' E 139°39'2 2.0
2014-Aug-29 23:33N 35°28' E 139°42'3 2.6
2014-Aug-29 22:33N 35°27' E 139°45'3 3.3
2014-Aug-29 21:33N 35°28' E 139°41'0 0.2
2014-Aug-29 20:33N 35°28' E 139°41'2 2.0
2014-Aug-29 19:33N 35°27' E 139°39'0 0.0
2014-Aug-29 18:33N 35°27' E 139°39'0 0.0
2014-Aug-29 17:33N 35°27' E 139°39'0 0.0
2014-Aug-29 16:33N 35°27' E 139°39'0 0.0
2014-Aug-29 15:33N 35°27' E 139°39'0 0.0
2014-Aug-29 14:33N 35°27' E 139°39'0 0.0
2014-Aug-29 13:33N 35°27' E 139°39'0 0.0
2014-Aug-29 12:33N 35°27' E 139°39'0 0.0
2014-Aug-29 11:33N 35°27' E 139°39'0 0.5
2014-Aug-29 10:33N 35°27' E 139°40'1 0.7
2014-Aug-29 09:33N 35°27' E 139°41'3 2.8
2014-Aug-29 08:33N 35°26' E 139°44'4 3.8
2014-Aug-29 07:34N 35°27' E 139°40'1 0.8
2014-Aug-29 06:33N 35°28' E 139°40'0 0.5
2014-Aug-29 05:33N 35°27' E 139°41'9 8.7
2014-Aug-29 04:33N 35°29' E 139°51'6 5.6
2014-Aug-29 03:33N 35°28' E 139°58'1 1.2
2014-Aug-29 02:34N 35°28' E 139°56'0 0.0
2014-Aug-29 01:34N 35°28' E 139°56'2 1.9
2014-Aug-29 00:33N 35°28' E 139°54'8 7.8
2014-Aug-28 23:34N 35°27' E 139°45'3 3.0
2014-Aug-28 22:33N 35°27' E 139°41'2 1.6
2014-Aug-28 21:33N 35°27' E 139°39'1 0.0
2014-Aug-28 00:34N 35°27' E 139°40'1 1.3
2014-Aug-27 23:34N 35°26' E 139°42'2 1.5
2014-Aug-27 22:34N 35°27' E 139°43'0 0.5
2014-Aug-27 21:33N 35°27' E 139°43'2 1.6
2014-Aug-27 20:33N 35°26' E 139°41'1 0.7
2014-Aug-27 19:33N 35°27' E 139°40'1 0.8
2014-Aug-27 18:33N 35°28' E 139°40'0 0.0
2014-Aug-27 17:33N 35°28' E 139°40'0 0.0
2014-Aug-27 16:33N 35°28' E 139°40'0 0.0
2014-Aug-27 15:33N 35°28' E 139°40'0 0.0
2014-Aug-27 14:33N 35°28' E 139°40'0 0.0
2014-Aug-27 13:33N 35°28' E 139°40'0 0.0
2014-Aug-27 12:33N 35°28' E 139°40'0 0.0
2014-Aug-27 11:33N 35°28' E 139°40'2 1.8
2014-Aug-27 10:33N 35°28' E 139°43'1 1.0
2014-Aug-27 09:34N 35°27' E 139°43'0 0.2
2014-Aug-27 08:33N 35°27' E 139°42'0 0.0
2014-Aug-27 07:33N 35°27' E 139°42'1 1.1
2014-Aug-27 06:33N 35°27' E 139°41'2 1.6
2014-Aug-27 05:33N 35°27' E 139°39'0 0.0
2014-Aug-27 04:33N 35°27' E 139°39'0 0.0
2014-Aug-27 03:33N 35°27' E 139°39'0 0.0
2014-Aug-27 02:33N 35°27' E 139°39'0 0.0
2014-Aug-27 01:33N 35°27' E 139°39'0 0.0
2014-Aug-27 00:33N 35°27' E 139°39'0 0.0
2014-Aug-26 23:33N 35°27' E 139°39'0 0.0
2014-Aug-26 22:33N 35°27' E 139°39'0 0.0
2014-Aug-26 21:33N 35°27' E 139°39'0 0.0
2014-Aug-26 20:33N 35°27' E 139°39'0 0.0
2014-Aug-26 07:14N 35°27' E 139°39'0 0.0
2014-Aug-26 06:33N 35°27' E 139°39'0 0.1
2014-Aug-26 05:33N 35°27' E 139°39'2 1.9
2014-Aug-26 04:33N 35°29' E 139°40'2 1.7
2014-Aug-26 03:33N 35°27' E 139°39'2 1.9
2014-Aug-26 02:33N 35°27' E 139°42'2 1.5
2014-Aug-26 01:33N 35°25' E 139°41'1 0.9
2014-Aug-26 00:33N 35°26' E 139°42'2 2.1
2014-Aug-25 23:34N 35°28' E 139°42'2 2.0
2014-Aug-25 22:33N 35°27' E 139°44'4 4.0
2014-Aug-25 21:33N 35°27' E 139°39'0 0.0
2014-Aug-25 09:22N 35°27' E 139°39'0 0.0
2014-Aug-25 08:33N 35°27' E 139°39'0 0.0
2014-Aug-25 07:33N 35°27' E 139°39'3 3.1
2014-Aug-25 06:33N 35°24' E 139°38'0 0.0
2014-Aug-25 05:33N 35°24' E 139°38'1 1.4
2014-Aug-25 04:33N 35°24' E 139°40'1 0.9
2014-Aug-25 03:33N 35°23' E 139°40'0 0.0
2014-Aug-25 02:33N 35°23' E 139°40'0 0.0
2014-Aug-25 01:33N 35°23' E 139°40'1 0.7
2014-Aug-25 00:33N 35°24' E 139°40'2 1.5
2014-Aug-24 23:34N 35°25' E 139°39'4 3.6
2014-Aug-24 22:33N 35°22' E 139°42'5 5.1
2014-Aug-24 21:33N 35°27' E 139°39'1 0.0
2014-Aug-23 03:33N 35°28' E 139°41'0 0.0
2014-Aug-23 02:33N 35°28' E 139°41'0 0.0
2014-Aug-23 01:33N 35°28' E 139°41'2 1.8
2014-Aug-23 00:34N 35°26' E 139°42'2 2.3
2014-Aug-22 23:33N 35°27' E 139°39'0 0.0
2014-Aug-22 22:33N 35°27' E 139°39'2 2.5
2014-Aug-22 21:34N 35°26' E 139°42'3 2.5
2014-Aug-22 20:34N 35°27' E 139°39'3 0.2
2014-Aug-22 09:33N 35°29' E 139°42'1 1.5
2014-Aug-22 08:33N 35°30' E 139°43'  

Dump ship's entire track history